Time;durP1;ratioP1;P1;durP2;ratioP2;P2;SDS_P1;SDS_P2;PMS_P1;PMS_P2;Temp;Humidity;BMP_temperature;BMP_pressure;BME280_temperature;BME280_humidity;BME280_pressure;Samples;Min_cycle;Max_cycle;Signal;HPM_P1;HPM_P2
2021/06/28 00:00:26;;;;;;;7.05;6.35;;;;;;;18.04;78.15;100879.41;3583229;39;20123;-47
2021/06/28 00:02:52;;;;;;;8.00;7.28;;;;;;;17.99;78.79;100883.75;3583129;39;20104;-44
2021/06/28 00:05:20;;;;;;;7.95;7.25;;;;;;;17.96;78.97;100881.16;3582982;39;20064;-46
2021/06/28 00:07:48;;;;;;;8.38;7.57;;;;;;;18.06;78.47;100877.66;3583929;39;20056;-47
2021/06/28 00:10:21;;;;;;;8.93;8.13;;;;;;;18.03;79.07;100875.09;3584506;39;20418;-46
2021/06/28 00:12:50;;;;;;;9.07;7.00;;;;;;;18.32;77.78;100872.44;3584534;39;20059;-46
2021/06/28 00:15:20;;;;;;;7.70;6.93;;;;;;;17.99;79.41;100881.16;3584621;39;20092;-46
2021/06/28 00:17:48;;;;;;;7.80;7.10;;;;;;;17.88;79.95;100875.09;3584399;39;20076;-45
2021/06/28 00:20:16;;;;;;;7.85;7.10;;;;;;;17.88;79.84;100872.50;3584201;39;20074;-48
2021/06/28 00:22:47;;;;;;;9.30;7.90;;;;;;;17.76;80.54;100874.25;3584548;39;20196;-45
2021/06/28 00:25:19;;;;;;;7.68;6.97;;;;;;;17.75;80.84;100869.09;3584481;39;20055;-47
2021/06/28 00:27:47;;;;;;;8.48;7.00;;;;;;;17.59;81.72;100865.59;3584372;39;20109;-45
2021/06/28 00:30:32;;;;;;;7.63;6.93;;;;;;;17.61;82.23;100876.84;3584417;39;20052;-46
2021/06/28 00:32:59;;;;;;;7.65;6.82;;;;;;;17.61;81.86;100868.19;3584227;39;20068;-47
2021/06/28 00:35:26;;;;;;;8.07;7.30;;;;;;;17.57;81.94;100862.16;3584639;39;20045;-48
2021/06/28 00:37:53;;;;;;;7.82;6.82;;;;;;;17.53;82.27;100870.78;3584838;39;20092;-46
2021/06/28 00:40:20;;;;;;;8.07;7.32;;;;;;;17.42;83.41;100875.09;3584566;39;20051;-49
2021/06/28 00:42:48;;;;;;;7.80;7.20;;;;;;;17.51;82.76;100862.16;3584608;39;20563;-46
2021/06/28 00:45:30;;;;;;;7.80;7.00;;;;;;;17.41;82.81;100856.09;3584653;39;20960;-45
2021/06/28 00:48:00;;;;;;;7.90;7.10;;;;;;;17.26;83.24;100863.88;3584147;39;20460;-44
2021/06/28 00:50:29;;;;;;;8.40;7.60;;;;;;;17.16;84.51;100869.91;3584461;39;20177;-44
2021/06/28 00:53:00;;;;;;;9.20;7.53;;;;;;;17.09;85.24;100865.56;3584099;39;20061;-46
2021/06/28 00:55:28;;;;;;;9.60;7.88;;;;;;;17.07;85.38;100864.72;3584418;39;20056;-47
2021/06/28 00:57:55;;;;;;;8.05;7.25;;;;;;;17.15;84.87;100868.19;3584304;39;20062;-44
2021/06/28 01:00:22;;;;;;;8.07;7.28;;;;;;;17.15;84.77;100869.03;3584102;39;20139;-44
2021/06/28 01:02:50;;;;;;;9.43;7.90;;;;;;;17.05;85.22;100859.50;3584118;39;20085;-47
2021/06/28 01:05:21;;;;;;;9.00;7.10;;;;;;;16.99;85.25;100865.53;3584277;39;20441;-45
2021/06/28 01:07:48;;;;;;;8.88;7.68;;;;;;;17.06;84.84;100856.09;3583770;39;20084;-45
2021/06/28 01:10:17;;;;;;;7.68;6.97;;;;;;;17.10;84.71;100862.09;3583938;39;20084;-47
2021/06/28 01:12:47;;;;;;;7.90;7.15;;;;;;;17.08;84.74;100856.09;3583829;39;20061;-46
2021/06/28 01:15:15;;;;;;;8.10;7.22;;;;;;;17.11;84.47;100861.28;3584065;39;20052;-44
2021/06/28 01:17:43;;;;;;;11.05;8.18;;;;;;;16.90;85.76;100865.53;3583869;39;20111;-45
2021/06/28 01:20:21;;;;;;;8.50;7.40;;;;;;;16.92;85.63;100866.41;3583879;39;20097;-45
2021/06/28 01:22:51;;;;;;;9.15;8.15;;;;;;;16.96;85.13;100862.06;3584052;39;20079;-46
2021/06/28 01:25:21;;;;;;;7.88;7.10;;;;;;;16.99;84.82;100865.53;3584138;39;20092;-44
2021/06/28 01:27:49;;;;;;;8.55;7.68;;;;;;;16.95;84.99;100868.97;3583914;39;20470;-45
2021/06/28 01:30:25;;;;;;;8.98;8.05;;;;;;;16.94;85.69;100864.66;3584219;39;20092;-45
2021/06/28 01:32:53;;;;;;;13.77;8.70;;;;;;;16.85;88.10;100861.19;3583917;39;20050;-44
2021/06/28 01:35:21;;;;;;;11.27;8.15;;;;;;;16.85;87.82;100864.66;3584265;39;20134;-44
2021/06/28 01:37:48;;;;;;;9.48;7.53;;;;;;;16.92;87.26;100861.22;3584143;39;20071;-45
2021/06/28 01:40:16;;;;;;;8.85;7.95;;;;;;;17.02;86.45;100862.97;3584133;39;20302;-44
2021/06/28 01:42:45;;;;;;;8.02;7.20;;;;;;;16.90;87.41;100862.94;3584247;39;20053;-46
2021/06/28 01:45:16;;;;;;;10.90;8.68;;;;;;;16.73;89.33;100867.19;3584414;39;20461;-45
2021/06/28 01:47:43;;;;;;;8.90;8.00;;;;;;;16.64;90.14;100869.72;3583909;39;20084;-46
2021/06/28 01:50:12;;;;;;;8.70;7.90;;;;;;;16.73;89.18;100867.19;3583931;39;20088;-47
2021/06/28 01:52:40;;;;;;;9.80;8.23;;;;;;;16.65;89.89;100871.47;3583938;39;20351;-47
2021/06/28 01:55:11;;;;;;;9.30;8.40;;;;;;;16.69;89.71;100868.91;3583904;39;20060;-44
2021/06/28 01:57:48;;;;;;;9.32;8.43;;;;;;;16.61;90.11;100867.13;3583737;39;20076;-46
2021/06/28 02:00:22;;;;;;;10.80;8.00;;;;;;;16.59;90.18;100867.09;3583799;39;20058;-45
2021/06/28 02:03:00;;;;;;;9.48;8.57;;;;;;;16.52;90.29;100868.81;3583529;39;20101;-47
2021/06/28 02:05:29;;;;;;;8.88;8.07;;;;;;;16.51;90.09;100861.06;3583775;39;20059;-45
2021/06/28 02:07:57;;;;;;;9.60;8.20;;;;;;;16.60;89.65;100868.00;3583853;39;20108;-45
2021/06/28 02:10:24;;;;;;;8.93;8.05;;;;;;;16.49;90.24;100857.59;3584281;39;20089;-48
2021/06/28 02:12:51;;;;;;;9.05;8.07;;;;;;;16.52;90.06;100865.38;3583771;39;20080;-46
2021/06/28 02:15:21;;;;;;;9.25;8.05;;;;;;;16.58;89.15;100860.22;3583551;39;20048;-45
2021/06/28 02:17:49;;;;;;;9.05;8.15;;;;;;;16.47;89.54;100872.25;3583670;39;20092;-47
2021/06/28 02:20:19;;;;;;;9.27;8.38;;;;;;;16.46;89.83;100876.56;3583809;39;20068;-46
2021/06/28 02:22:51;;;;;;;10.98;9.45;;;;;;;16.42;89.47;100866.19;3583962;39;20146;-45
2021/06/28 02:25:19;;;;;;;9.30;8.40;;;;;;;16.44;89.55;100867.91;3583786;39;20088;-45
2021/06/28 02:27:47;;;;;;;9.27;8.40;;;;;;;16.38;89.73;100862.72;3583608;39;20171;-45
2021/06/28 02:30:18;;;;;;;9.27;8.43;;;;;;;16.41;90.50;100854.13;3583288;39;20351;-49
2021/06/28 02:32:47;;;;;;;9.60;8.60;;;;;;;16.39;90.24;100851.53;3583244;39;20060;-46
2021/06/28 02:35:14;;;;;;;10.68;8.75;;;;;;;16.35;90.78;100854.94;3583500;39;20058;-45
2021/06/28 02:37:41;;;;;;;9.52;8.63;;;;;;;16.38;90.92;100846.34;3583654;39;20052;-46
2021/06/28 02:40:12;;;;;;;10.48;8.88;;;;;;;16.36;90.25;100850.63;3583392;39;20084;-45
2021/06/28 02:42:40;;;;;;;9.93;8.93;;;;;;;16.31;90.84;100842.88;3583634;39;20051;-45
2021/06/28 02:45:09;;;;;;;10.10;8.77;;;;;;;16.25;91.42;100843.69;3583600;39;20166;-46
2021/06/28 02:47:37;;;;;;;12.77;9.02;;;;;;;16.30;91.34;100851.47;3583414;39;20333;-44
2021/06/28 02:50:07;;;;;;;9.18;7.97;;;;;;;16.28;90.57;100841.16;3583420;39;20064;-46
2021/06/28 02:52:34;;;;;;;14.63;9.40;;;;;;;16.24;90.97;100844.56;3583476;39;20056;-45
2021/06/28 02:55:03;;;;;;;9.93;8.90;;;;;;;16.21;90.46;100839.38;3583319;39;20100;-49
2021/06/28 02:57:31;;;;;;;9.82;8.80;;;;;;;16.19;90.83;100833.34;3583810;39;20056;-46
2021/06/28 02:59:58;;;;;;;9.70;8.57;;;;;;;16.14;91.43;100826.44;3583528;39;20060;-46
2021/06/28 03:02:25;;;;;;;9.40;8.43;;;;;;;16.16;91.52;100827.28;3583380;39;20086;-45
2021/06/28 03:04:52;;;;;;;9.77;8.82;;;;;;;16.13;91.83;100833.31;3583285;39;20396;-45
2021/06/28 03:07:20;;;;;;;10.65;9.15;;;;;;;16.09;92.41;100831.59;3583058;39;20089;-45
2021/06/28 03:09:47;;;;;;;11.13;9.30;;;;;;;16.15;92.82;100823.84;3583143;39;20108;-45
2021/06/28 03:12:14;;;;;;;10.38;9.32;;;;;;;16.21;92.36;100823.00;3583211;39;20415;-46
2021/06/28 03:14:41;;;;;;;11.45;8.43;;;;;;;16.24;91.87;100817.88;3583214;39;20092;-45
2021/06/28 03:17:08;;;;;;;11.85;9.73;;;;;;;16.22;92.42;100830.78;3583045;39;20053;-46
2021/06/28 03:19:35;;;;;;;9.90;8.48;;;;;;;16.19;92.04;100830.75;3582999;39;20061;-45
2021/06/28 03:22:02;;;;;;;11.20;8.75;;;;;;;16.17;91.92;100837.63;3583374;39;20073;-45
2021/06/28 03:24:29;;;;;;;10.10;9.10;;;;;;;16.21;91.37;100838.50;3583090;39;20092;-45
2021/06/28 03:26:56;;;;;;;10.40;9.18;;;;;;;16.21;91.69;100835.94;3583606;39;20100;-45
2021/06/28 03:29:23;;;;;;;9.82;8.60;;;;;;;16.21;91.54;100838.50;3583546;39;20056;-47
2021/06/28 03:31:50;;;;;;;10.55;8.98;;;;;;;16.24;91.61;100841.97;3583155;39;20049;-46
2021/06/28 03:34:17;;;;;;;9.73;8.63;;;;;;;16.25;91.61;100835.09;3583258;39;20084;-46
2021/06/28 03:36:44;;;;;;;9.25;8.35;;;;;;;16.28;91.58;100845.44;3583226;39;20426;-46
2021/06/28 03:39:12;;;;;;;10.68;8.75;;;;;;;16.25;91.32;100843.69;3583565;39;20306;-46
2021/06/28 03:41:39;;;;;;;10.38;8.85;;;;;;;16.30;91.44;100843.72;3583937;39;20108;-47
2021/06/28 03:44:06;;;;;;;9.40;8.35;;;;;;;16.28;90.93;100842.88;3584730;39;20080;-45
2021/06/28 03:46:33;;;;;;;13.38;8.65;;;;;;;16.35;91.24;100842.03;3584822;39;20063;-46
2021/06/28 03:49:00;;;;;;;10.70;8.57;;;;;;;16.43;90.17;100839.47;3584698;39;20059;-46
2021/06/28 03:51:27;;;;;;;12.20;8.70;;;;;;;16.42;89.35;100842.94;3584851;39;20083;-45
2021/06/28 03:53:54;;;;;;;9.52;8.45;;;;;;;16.50;88.76;100846.38;3584880;39;20102;-45
2021/06/28 03:56:22;;;;;;;9.18;8.20;;;;;;;16.58;89.14;100844.69;3585088;39;20341;-45
2021/06/28 03:58:49;;;;;;;9.18;8.27;;;;;;;16.62;88.81;100843.84;3585342;39;20111;-46
2021/06/28 04:01:16;;;;;;;8.55;7.65;;;;;;;16.72;89.06;100849.94;3584804;39;20127;-45
2021/06/28 04:03:43;;;;;;;9.57;8.63;;;;;;;17.14;87.08;100853.50;3584527;39;20099;-45
2021/06/28 04:06:10;;;;;;;8.95;8.05;;;;;;;16.93;87.96;100850.03;3584562;39;20611;-45
2021/06/28 04:08:38;;;;;;;9.57;7.93;;;;;;;17.15;86.57;100850.06;3584558;39;20350;-45
2021/06/28 04:11:07;;;;;;;11.90;8.85;;;;;;;17.17;86.70;100861.28;3584962;39;20080;-45
2021/06/28 04:13:34;;;;;;;9.23;8.27;;;;;;;17.05;87.62;100867.28;3584597;39;20108;-44
2021/06/28 04:16:01;;;;;;;10.80;8.00;;;;;;;17.17;85.89;100867.31;3584565;39;20043;-45
2021/06/28 04:18:29;;;;;;;8.63;7.80;;;;;;;17.18;86.74;100869.03;3584881;39;20169;-45
2021/06/28 04:20:56;;;;;;;17.35;8.35;;;;;;;17.20;86.62;100871.63;3584959;39;20128;-44
2021/06/28 04:23:23;;;;;;;8.85;7.95;;;;;;;17.37;86.93;100863.88;3584825;39;20058;-45
2021/06/28 04:25:51;;;;;;;8.70;7.55;;;;;;;17.61;84.96;100873.34;3584771;39;20056;-45
2021/06/28 04:28:18;;;;;;;10.10;8.43;;;;;;;17.69;85.15;100872.50;3584605;39;20104;-44
2021/06/28 04:30:45;;;;;;;9.23;7.68;;;;;;;17.64;84.47;100874.22;3584394;39;20312;-46
2021/06/28 04:33:12;;;;;;;11.00;7.95;;;;;;;17.84;84.18;100876.84;3584734;39;20052;-44
2021/06/28 04:35:39;;;;;;;13.02;8.93;;;;;;;17.81;84.22;100872.53;3584771;39;20068;-44
2021/06/28 04:38:07;;;;;;;11.32;8.13;;;;;;;17.87;83.42;100863.88;3584469;39;20056;-47
2021/06/28 04:40:35;;;;;;;9.13;8.23;;;;;;;17.86;82.35;100869.06;3584558;39;20061;-46
2021/06/28 04:43:02;;;;;;;10.68;8.38;;;;;;;18.15;78.61;100861.22;3584145;39;20082;-45
2021/06/28 04:45:29;;;;;;;9.32;8.25;;;;;;;18.15;79.98;100864.69;3584252;39;20052;-44
2021/06/28 04:47:57;;;;;;;11.32;7.88;;;;;;;18.39;80.03;100868.94;3584499;39;20056;-45
2021/06/28 04:50:24;;;;;;;9.23;7.40;;;;;;;19.06;77.67;100880.75;3584504;39;20045;-44
2021/06/28 04:52:53;;;;;;;8.15;7.35;;;;;;;19.21;75.19;100883.25;3583745;39;20088;-44
2021/06/28 04:55:22;;;;;;;9.27;7.85;;;;;;;19.29;74.91;100883.19;3584336;39;20059;-44
2021/06/28 04:57:50;;;;;;;10.32;8.15;;;;;;;19.32;75.06;100880.59;3584076;39;20060;-47
2021/06/28 05:00:21;;;;;;;9.65;8.07;;;;;;;19.31;74.27;100891.84;3584319;39;20056;-44
2021/06/28 05:02:48;;;;;;;11.05;8.05;;;;;;;19.44;73.46;100877.03;3584349;39;20079;-45
2021/06/28 05:05:16;;;;;;;10.48;8.18;;;;;;;19.34;74.33;100876.25;3584353;39;20115;-44
2021/06/28 05:07:43;;;;;;;10.30;7.65;;;;;;;19.66;73.14;100873.41;3584194;39;20056;-44
2021/06/28 05:10:13;;;;;;;8.70;7.80;;;;;;;20.11;72.05;100878.19;3584445;39;20084;-44
2021/06/28 05:12:41;;;;;;;11.35;8.20;;;;;;;19.83;71.39;100875.88;3584149;39;20096;-45
2021/06/28 05:15:10;;;;;;;9.15;8.15;;;;;;;20.46;68.89;100886.44;3584243;39;20341;-48
2021/06/28 05:17:38;;;;;;;8.40;7.60;;;;;;;20.29;69.74;100889.25;3584095;39;20103;-44
2021/06/28 05:20:07;;;;;;;9.02;8.13;;;;;;;20.74;67.61;100884.38;3583936;39;20056;-44
2021/06/28 05:22:34;;;;;;;9.00;8.20;;;;;;;20.90;66.97;100877.25;3583925;39;20100;-48
2021/06/28 05:25:05;;;;;;;10.90;8.63;;;;;;;20.61;68.42;100875.00;3584158;39;20375;-47
2021/06/28 05:27:34;;;;;;;9.27;7.88;;;;;;;20.65;69.89;100871.50;3584104;39;20060;-44
2021/06/28 05:30:09;;;;;;;9.60;8.35;;;;;;;20.98;67.90;100862.34;3584034;39;20048;-45
2021/06/28 05:32:37;;;;;;;13.48;9.43;;;;;;;21.31;65.99;100868.00;3584008;39;20072;-44
2021/06/28 05:35:07;;;;;;;11.77;9.20;;;;;;;20.87;66.63;100863.41;3583894;39;20053;-44
2021/06/28 05:37:39;;;;;;;14.13;8.80;;;;;;;21.00;67.57;100860.59;3584261;39;20049;-44
2021/06/28 05:40:10;;;;;;;10.40;9.30;;;;;;;21.16;66.84;100857.75;3584106;39;20056;-44
2021/06/28 05:42:43;;;;;;;10.68;8.55;;;;;;;21.15;68.27;100851.69;3584440;39;20064;-45
2021/06/28 05:45:15;;;;;;;11.18;8.98;;;;;;;21.26;65.98;100849.81;3584121;39;20048;-47
2021/06/28 05:47:44;;;;;;;19.52;9.43;;;;;;;21.38;66.24;100855.72;3583919;39;20333;-48
2021/06/28 05:50:25;;;;;;;20.50;9.27;;;;;;;21.84;64.94;100861.00;3584156;39;20041;-45
2021/06/28 05:52:57;;;;;;;16.08;8.75;;;;;;;22.32;63.23;100866.19;3583790;39;20425;-45
2021/06/28 05:55:28;;;;;;;12.50;9.23;;;;;;;22.56;62.81;100868.34;3584350;39;20040;-45
2021/06/28 05:57:55;;;;;;;12.50;9.05;;;;;;;22.34;62.13;100867.06;3584829;39;20449;-48
2021/06/28 06:00:26;;;;;;;9.60;8.60;;;;;;;22.54;61.54;100864.03;3584463;39;20052;-46
2021/06/28 06:02:54;;;;;;;15.15;9.20;;;;;;;22.48;62.07;100858.94;3584177;39;20048;-47
2021/06/28 06:05:21;;;;;;;11.98;8.93;;;;;;;22.38;63.48;100860.88;3583286;39;20056;-45
2021/06/28 06:07:48;;;;;;;9.85;8.85;;;;;;;23.04;60.33;100860.34;3584033;39;20064;-49
2021/06/28 06:10:27;;;;;;;14.88;9.18;;;;;;;22.81;62.88;100860.81;3583954;39;20056;-47
2021/06/28 06:12:58;;;;;;;9.88;8.98;;;;;;;23.23;60.08;100862.50;3583926;39;20047;-51
2021/06/28 06:15:33;;;;;;;10.57;9.38;;;;;;;23.08;59.88;100863.75;3584024;39;20048;-47
2021/06/28 06:18:00;;;;;;;;;;;;;;;23.52;57.72;100864.41;3584388;39;20040;-45
2021/06/28 06:20:33;;;;;;;12.88;9.43;;;;;;;23.67;58.55;100857.97;3584118;39;19932;-51
2021/06/28 06:23:11;;;;;;;14.30;10.07;;;;;;;23.90;58.89;100866.09;3584505;39;20414;-48
2021/06/28 06:25:48;;;;;;;12.88;9.65;;;;;;;23.94;57.23;100870.31;3588821;39;20044;-46
2021/06/28 06:28:23;;;;;;;12.20;9.30;;;;;;;24.17;55.99;100872.31;3586404;39;20405;-45
2021/06/28 06:30:52;;;;;;;12.00;9.25;;;;;;;24.67;55.85;100867.41;3582774;39;20068;-46
2021/06/28 06:33:21;;;;;;;12.00;9.05;;;;;;;24.80;54.94;100870.53;3583913;39;20506;-45
2021/06/28 06:35:49;;;;;;;11.35;8.95;;;;;;;24.78;54.87;100875.81;3583740;39;20072;-46
2021/06/28 06:38:17;;;;;;;13.05;9.88;;;;;;;24.80;54.45;100871.38;3583922;39;20060;-47
2021/06/28 06:40:48;;;;;;;15.40;9.68;;;;;;;24.66;55.00;100878.78;3583945;39;20347;-46
2021/06/28 06:43:16;;;;;;;11.98;9.32;;;;;;;24.73;54.74;100876.84;3583556;39;20059;-46
2021/06/28 06:45:44;;;;;;;10.90;9.73;;;;;;;24.75;53.53;100877.66;3584032;39;20085;-48
2021/06/28 06:48:14;;;;;;;9.38;8.48;;;;;;;25.26;52.01;100885.69;3583522;39;20047;-45
2021/06/28 06:50:49;;;;;;;10.13;9.23;;;;;;;25.42;53.41;100890.44;3583669;39;20067;-48
2021/06/28 06:53:16;;;;;;;11.20;9.88;;;;;;;25.38;53.10;100887.06;3583673;39;20048;-45
2021/06/28 06:55:57;;;;;;;12.95;9.60;;;;;;;25.58;51.37;100895.13;3583860;39;20060;-45
2021/06/28 06:58:32;;;;;;;10.10;9.10;;;;;;;25.72;52.66;100885.94;3583554;39;20125;-49
2021/06/28 07:01:02;;;;;;;126.78;23.52;;;;;;;25.63;51.65;100894.97;3583526;39;20036;-48
2021/06/28 07:03:40;;;;;;;12.45;9.88;;;;;;;25.71;52.04;100894.72;3583617;39;20053;-48
2021/06/28 07:06:08;;;;;;;9.18;8.30;;;;;;;26.24;49.54;100902.53;3583079;39;20056;-47
2021/06/28 07:08:45;;;;;;;10.45;9.35;;;;;;;26.32;50.82;100905.72;3583328;39;20060;-45
2021/06/28 07:11:12;;;;;;;13.25;9.45;;;;;;;26.34;51.31;100901.28;3583737;39;20055;-44
2021/06/28 07:13:50;;;;;;;10.45;9.55;;;;;;;26.58;50.19;100895.16;3583612;39;20044;-45
2021/06/28 07:16:30;;;;;;;10.45;9.52;;;;;;;26.98;49.48;100901.50;3584695;39;20092;-46
2021/06/28 07:19:04;;;;;;;26.30;10.90;;;;;;;27.08;47.48;100905.50;3585104;39;20041;-48
2021/06/28 07:21:34;;;;;;;24.98;10.38;;;;;;;27.53;47.54;100904.56;3584916;39;20048;-44
2021/06/28 07:24:01;;;;;;;9.60;8.73;;;;;;;27.44;46.58;100898.84;3584946;39;20313;-44
2021/06/28 07:26:28;;;;;;;10.93;9.93;;;;;;;27.66;46.23;100897.88;3584983;39;20092;-45
2021/06/28 07:28:55;;;;;;;11.55;10.35;;;;;;;27.88;45.38;100900.50;3585416;39;20080;-45
2021/06/28 07:31:23;;;;;;;10.45;9.32;;;;;;;27.98;45.31;100908.00;3586199;39;20096;-44
2021/06/28 07:33:50;;;;;;;11.32;9.60;;;;;;;27.66;45.66;100904.94;3585998;39;20061;-48
2021/06/28 07:36:18;;;;;;;10.65;9.77;;;;;;;28.26;45.03;100912.91;3586118;39;20076;-48
2021/06/28 07:38:45;;;;;;;10.02;9.13;;;;;;;28.03;43.03;100906.03;3585956;39;20071;-49
2021/06/28 07:41:12;;;;;;;11.00;9.50;;;;;;;28.35;42.67;100910.75;3585069;39;20119;-48
2021/06/28 07:43:39;;;;;;;10.63;9.48;;;;;;;28.61;42.82;100909.56;3584908;39;20060;-49
2021/06/28 07:46:06;;;;;;;9.52;8.57;;;;;;;29.00;40.51;100907.81;3584882;39;20052;-45
2021/06/28 07:48:34;;;;;;;9.98;8.95;;;;;;;29.24;41.21;100901.34;3584689;39;20045;-47
2021/06/28 07:51:01;;;;;;;10.00;8.35;;;;;;;29.35;40.51;100904.31;3584837;39;20053;-45
2021/06/28 07:53:28;;;;;;;9.23;8.45;;;;;;;29.32;38.77;100906.25;3584757;39;20081;-44
2021/06/28 07:55:55;;;;;;;8.55;7.80;;;;;;;29.11;38.80;100893.16;3584684;39;20375;-45
2021/06/28 07:58:22;;;;;;;8.18;7.47;;;;;;;29.58;37.92;100892.66;3584895;39;20088;-45
2021/06/28 08:00:49;;;;;;;8.50;7.43;;;;;;;29.83;38.24;100892.25;3584745;39;20072;-44
2021/06/28 08:03:16;;;;;;;8.32;7.57;;;;;;;30.05;37.80;100893.78;3584550;39;20407;-45
2021/06/28 08:05:43;;;;;;;8.65;7.82;;;;;;;29.66;36.07;100882.53;3584859;39;20401;-44
2021/06/28 08:08:10;;;;;;;9.00;7.68;;;;;;;30.27;35.96;100888.22;3584669;39;20100;-47
2021/06/28 08:10:37;;;;;;;9.10;8.05;;;;;;;30.06;35.69;100890.22;3584718;39;20327;-45
2021/06/28 08:13:05;;;;;;;11.13;7.28;;;;;;;30.38;34.89;100893.81;3584727;39;20161;-49
2021/06/28 08:15:32;;;;;;;7.70;7.07;;;;;;;30.20;34.90;100892.16;3584603;39;20071;-48
2021/06/28 08:17:59;;;;;;;7.57;6.97;;;;;;;31.00;35.16;100896.59;3584715;39;20123;-46
2021/06/28 08:20:26;;;;;;;7.90;7.30;;;;;;;31.40;33.92;100898.72;3585034;39;20411;-46
2021/06/28 08:22:53;;;;;;;8.38;7.55;;;;;;;31.30;34.14;100899.34;3585012;39;20056;-46
2021/06/28 08:25:24;;;;;;;11.80;8.23;;;;;;;31.50;33.80;100900.81;3584756;39;20337;-47
2021/06/28 08:27:51;;;;;;;7.80;7.10;;;;;;;30.88;33.23;100900.81;3584174;39;20096;-46
2021/06/28 08:30:19;;;;;;;8.30;7.13;;;;;;;30.07;33.88;100887.47;3584767;39;20155;-47
2021/06/28 08:32:46;;;;;;;7.28;6.57;;;;;;;30.92;32.86;100889.09;3584491;39;20048;-51
2021/06/28 08:35:14;;;;;;;6.43;5.82;;;;;;;30.15;34.06;100882.69;3584517;39;20465;-49
2021/06/28 08:37:41;;;;;;;6.97;5.25;;;;;;;30.44;32.89;100893.47;3584630;39;20410;-48
2021/06/28 08:40:10;;;;;;;5.30;4.80;;;;;;;30.40;32.04;100886.63;3584691;39;20104;-45
2021/06/28 08:42:38;;;;;;;6.45;5.53;;;;;;;30.51;33.65;100891.38;3584607;39;20508;-45
2021/06/28 08:45:06;;;;;;;36.53;8.98;;;;;;;30.15;33.43;100890.59;3584584;39;20106;-47
2021/06/28 08:47:33;;;;;;;5.20;4.70;;;;;;;30.06;33.25;100885.78;3584429;39;20092;-48
2021/06/28 08:50:01;;;;;;;5.22;4.82;;;;;;;29.48;32.98;100887.88;3584336;39;20072;-47
2021/06/28 08:52:34;;;;;;;8.27;5.60;;;;;;;29.23;33.57;100883.81;3584690;39;20067;-45
2021/06/28 08:55:02;;;;;;;8.57;4.75;;;;;;;29.50;33.39;100886.88;3584474;39;20370;-47
2021/06/28 08:57:30;;;;;;;7.80;5.00;;;;;;;29.35;33.19;100891.13;3584199;39;20088;-46
2021/06/28 08:59:57;;;;;;;7.03;4.47;;;;;;;29.36;33.14;100890.19;3584483;39;20088;-46
2021/06/28 09:02:24;;;;;;;4.80;4.40;;;;;;;29.46;33.15;100893.22;3584435;39;20056;-47
2021/06/28 09:04:59;;;;;;;4.82;4.10;;;;;;;29.63;33.65;100901.19;3584701;39;20346;-44
2021/06/28 09:07:26;;;;;;;25.02;5.88;;;;;;;29.58;31.88;100895.31;3583080;40;20059;-48
2021/06/28 09:09:54;;;;;;;9.52;4.10;;;;;;;29.69;30.80;100897.38;3584263;39;20127;-46
2021/06/28 09:12:21;;;;;;;3.83;3.40;;;;;;;29.62;30.87;100891.53;3584350;39;20161;-45
2021/06/28 09:14:54;;;;;;;4.07;3.78;;;;;;;29.66;30.77;100892.25;3584125;39;20056;-47
2021/06/28 09:17:33;;;;;;;4.15;3.85;;;;;;;30.07;33.12;100892.75;3584349;39;20053;-45
2021/06/28 09:20:16;;;;;;;4.05;3.75;;;;;;;30.21;31.35;100896.50;3586982;39;20053;-49
2021/06/28 09:22:44;;;;;;;5.80;4.38;;;;;;;30.33;31.16;100899.34;3588778;39;20091;-46
2021/06/28 09:25:32;;;;;;;4.43;3.85;;;;;;;30.01;32.60;100898.38;3584706;39;20084;-45
2021/06/28 09:27:59;;;;;;;3.80;3.47;;;;;;;29.78;30.60;100889.00;3584268;39;20052;-46
2021/06/28 09:30:27;;;;;;;5.43;2.97;;;;;;;30.37;29.79;100890.31;3584430;39;20349;-47
2021/06/28 09:32:55;;;;;;;3.58;3.28;;;;;;;30.17;31.01;100891.34;3584200;39;20064;-47
2021/06/28 09:35:38;;;;;;;3.67;3.38;;;;;;;30.16;31.10;100894.09;3584288;39;20100;-49
2021/06/28 09:38:39;;;;;;;4.03;3.67;;;;;;;30.78;29.75;100896.94;3584009;39;20418;-48
2021/06/28 09:41:25;;;;;;;4.20;3.90;;;;;;;31.09;29.05;100898.72;3583635;39;20085;-48
2021/06/28 09:43:59;;;;;;;4.90;3.72;;;;;;;31.65;28.99;100897.25;3584004;39;20096;-48
2021/06/28 09:46:26;;;;;;;4.25;3.95;;;;;;;31.51;30.77;100894.56;3584163;39;20428;-52
2021/06/28 09:48:55;;;;;;;3.75;3.45;;;;;;;31.29;28.79;100894.97;3584231;39;20063;-50
2021/06/28 09:51:26;;;;;;;3.65;3.45;;;;;;;31.76;27.87;100894.00;3583964;39;20523;-50
2021/06/28 09:54:05;;;;;;;4.15;3.40;;;;;;;32.22;26.75;100896.50;3583893;39;20243;-48
2021/06/28 09:56:36;;;;;;;3.38;3.17;;;;;;;31.50;28.58;100891.06;3584092;39;20041;-53
2021/06/28 09:59:22;;;;;;;3.17;2.85;;;;;;;32.84;26.57;100895.22;3584294;39;20347;-52
2021/06/28 10:02:28;;;;;;;4.80;3.85;;;;;;;32.34;27.81;100893.09;3584130;39;20056;-46
2021/06/28 10:05:14;;;;;;;6.95;4.20;;;;;;;32.39;28.72;100888.41;3584339;39;20064;-46
2021/06/28 10:07:41;;;;;;;4.55;3.75;;;;;;;33.12;27.27;100891.66;3584105;39;20048;-47
2021/06/28 10:10:22;;;;;;;4.25;3.85;;;;;;;34.27;25.11;100885.69;3584182;39;20137;-47
2021/06/28 10:12:52;;;;;;;3.75;3.45;;;;;;;33.55;26.05;100886.19;3584045;39;20330;-49
2021/06/28 10:15:22;;;;;;;4.13;3.83;;;;;;;33.85;25.12;100877.94;3583955;39;20055;-46
2021/06/28 10:17:49;;;;;;;3.75;3.47;;;;;;;36.17;22.38;100891.09;3583879;39;20075;-48
2021/06/28 10:20:22;;;;;;;3.80;3.60;;;;;;;37.46;23.00;100892.19;3584164;39;20353;-49
2021/06/28 10:22:50;;;;;;;3.55;3.25;;;;;;;38.06;20.67;100887.91;3583882;39;20060;-49
2021/06/28 10:25:20;;;;;;;4.15;3.85;;;;;;;35.35;23.12;100877.78;3583880;39;20092;-47
2021/06/28 10:27:48;;;;;;;4.53;4.10;;;;;;;35.84;22.15;100871.41;3583981;39;20068;-51
2021/06/28 10:30:17;;;;;;;4.28;3.92;;;;;;;38.14;20.97;100874.72;3583886;39;20154;-48
2021/06/28 10:32:47;;;;;;;3.72;3.53;;;;;;;37.17;21.49;100867.91;3583897;39;20083;-46
2021/06/28 10:35:21;;;;;;;3.85;3.63;;;;;;;37.40;20.76;100879.34;3583627;39;20053;-47
2021/06/28 10:37:49;;;;;;;4.30;4.00;;;;;;;38.07;21.46;100876.22;3583696;39;20080;-48
2021/06/28 10:40:22;;;;;;;3.45;3.15;;;;;;;39.84;17.91;100879.84;3583815;39;20116;-49
2021/06/28 10:42:55;;;;;;;3.88;3.67;;;;;;;39.53;18.56;100873.84;3583615;39;20089;-48
2021/06/28 10:45:46;;;;;;;3.83;3.63;;;;;;;40.78;16.80;100872.50;3583727;39;20096;-48
2021/06/28 10:48:17;;;;;;;3.83;3.63;;;;;;;39.34;19.41;100862.16;3583312;39;20055;-50
2021/06/28 10:50:59;;;;;;;3.60;3.33;;;;;;;39.41;19.23;100857.06;3583203;39;20316;-50
2021/06/28 10:53:32;;;;;;;4.25;3.92;;;;;;;40.87;18.27;100857.28;3583956;39;20410;-48
2021/06/28 10:55:59;;;;;;;3.63;3.33;;;;;;;41.16;17.70;100855.22;3583747;39;20104;-53
2021/06/28 10:58:32;;;;;;;3.72;3.50;;;;;;;39.18;19.15;100840.41;3583752;39;20057;-49
2021/06/28 11:00:59;;;;;;;3.65;3.35;;;;;;;37.83;19.85;100838.22;3583715;39;20045;-49
2021/06/28 11:03:30;;;;;;;19.05;6.18;;;;;;;41.60;17.04;100849.00;3583421;39;20144;-49
2021/06/28 11:06:12;;;;;;;5.60;3.80;;;;;;;39.78;18.20;100841.03;3583600;39;20088;-49
2021/06/28 11:08:57;;;;;;;4.60;3.83;;;;;;;38.76;20.21;100834.50;3582944;39;20052;-49
2021/06/28 11:11:42;;;;;;;8.70;4.27;;;;;;;37.67;21.82;100830.69;3583527;39;20350;-51
2021/06/28 11:14:18;;;;;;;4.50;4.10;;;;;;;37.84;19.30;100839.91;3583040;39;20429;-48
2021/06/28 11:17:08;;;;;;;3.95;3.65;;;;;;;37.31;20.54;100843.53;3583631;39;20096;-48
2021/06/28 11:22:38;;;;;;;4.15;3.85;;;;;;;35.63;23.16;100827.75;3583394;39;20501;-51
2021/06/28 11:25:08;;;;;;;4.25;3.90;;;;;;;35.28;22.97;100827.78;3582919;39;20318;-49
2021/06/28 11:27:40;;;;;;;4.00;3.70;;;;;;;35.35;21.55;100829.84;3583195;39;20056;-53
2021/06/28 11:30:13;;;;;;;4.30;4.00;;;;;;;34.50;22.92;100821.09;3583033;39;20057;-51
2021/06/28 11:33:01;;;;;;;4.28;3.97;;;;;;;34.67;23.75;100818.06;3583168;39;20096;-54
2021/06/28 11:35:41;;;;;;;4.20;3.88;;;;;;;34.38;23.48;100819.28;3583614;39;20064;-49
2021/06/28 11:38:24;;;;;;;3.95;3.72;;;;;;;35.84;22.64;100823.44;3583395;39;20033;-52